Time;durP1;ratioP1;P1;durP2;ratioP2;P2;SDS_P1;SDS_P2;PMS_P1;PMS_P2;Temp;Humidity;BMP_temperature;BMP_pressure;BME280_temperature;BME280_humidity;BME280_pressure;Samples;Min_cycle;Max_cycle;Signal;HPM_P1;HPM_P2
2023/02/12 00:01:38;;;;;;;32.77;25.90;;;7.00;99.90;;;;;;4962535;28;20628;-56
2023/02/12 00:04:04;;;;;;;36.43;26.23;;;;;;;;;;4971621;28;20201;-57
2023/02/12 00:06:30;;;;;;;35.73;27.10;;;;;;;;;;4969223;28;20201;-55
2023/02/12 00:08:57;;;;;;;33.37;26.33;;;;;;;;;;4973672;28;20174;-53
2023/02/12 00:11:25;;;;;;;36.37;28.00;;;6.60;99.90;;;;;;4973787;28;20236;-56
2023/02/12 00:13:52;;;;;;;32.23;25.13;;;;;;;;;;4973897;28;20589;-53
2023/02/12 00:16:21;;;;;;;31.87;26.17;;;6.50;99.90;;;;;;4972872;28;20214;-55
2023/02/12 00:18:47;;;;;;;34.10;26.03;;;6.50;99.90;;;;;;4973265;28;20182;-54
2023/02/12 00:21:13;;;;;;;33.30;25.90;;;6.60;99.90;;;;;;4973012;28;20674;-54
2023/02/12 00:23:40;;;;;;;34.13;26.83;;;6.80;99.90;;;;;;4973978;28;20185;-53
2023/02/12 00:26:13;;;;;;;37.17;27.33;;;;;;;;;;4965878;28;20218;-57
2023/02/12 00:28:39;;;;;;;34.97;28.17;;;6.60;99.90;;;;;;4966628;28;20217;-56
2023/02/12 00:31:13;;;;;;;34.37;26.83;;;;;;;;;;4968293;28;20230;-54
2023/02/12 00:33:39;;;;;;;32.47;25.07;;;;;;;;;;4969342;28;20188;-53
2023/02/12 00:36:06;;;;;;;34.70;27.53;;;6.80;99.90;;;;;;4972767;28;20214;-55
2023/02/12 00:38:32;;;;;;;33.03;25.90;;;;;;;;;;4973321;28;20259;-57
2023/02/12 00:40:58;;;;;;;32.33;25.70;;;;;;;;;;4972920;28;20218;-57
2023/02/12 00:43:24;;;;;;;33.30;26.43;;;;;;;;;;4972736;28;20178;-53
2023/02/12 00:45:50;;;;;;;34.00;26.87;;;;;;;;;;4972110;28;20205;-53
2023/02/12 00:48:15;;;;;;;32.57;25.87;;;6.80;99.90;;;;;;4972896;28;20174;-53
2023/02/12 00:50:44;;;;;;;30.47;25.43;;;6.70;99.90;;;;;;4972689;28;20657;-56
2023/02/12 00:53:10;;;;;;;31.87;25.93;;;;;;;;;;4972106;28;20178;-58
2023/02/12 00:55:35;;;;;;;33.07;26.13;;;7.20;99.90;;;;;;4970555;28;20221;-54
2023/02/12 00:58:01;;;;;;;34.63;27.60;;;;;;;;;;4970792;28;20178;-55
2023/02/12 01:00:27;;;;;;;30.70;26.23;;;;;;;;;;4972028;28;20212;-58
2023/02/12 01:02:53;;;;;;;30.83;24.80;;;;;;;;;;4968136;28;20189;-57
2023/02/12 01:05:19;;;;;;;33.87;25.87;;;;;;;;;;4966355;28;20313;-54
2023/02/12 01:07:52;;;;;;;35.20;26.90;;;7.10;99.90;;;;;;4970349;28;20265;-56
2023/02/12 01:10:22;;;;;;;33.30;25.77;;;7.20;99.90;;;;;;4972869;28;20189;-51
2023/02/12 01:12:48;;;;;;;34.13;26.43;;;;;;;;;;4972678;28;20269;-56
2023/02/12 01:15:15;;;;;;;30.30;24.57;;;7.20;99.90;;;;;;4971663;28;20527;-57
2023/02/12 01:17:40;;;;;;;32.90;26.10;;;7.00;99.90;;;;;;4970744;28;20622;-55
2023/02/12 01:20:08;;;;;;;32.73;24.57;;;7.00;99.90;;;;;;4972454;28;20273;-57
2023/02/12 01:22:34;;;;;;;32.07;25.80;;;7.00;99.90;;;;;;4972091;28;20184;-55
2023/02/12 01:25:00;;;;;;;29.67;23.87;;;;;;;;;;4972342;28;20221;-56
2023/02/12 01:27:26;;;;;;;32.63;24.63;;;;;;;;;;4972242;28;20557;-53
2023/02/12 01:29:52;;;;;;;29.77;23.80;;;7.00;99.90;;;;;;4972244;28;20647;-53
2023/02/12 01:32:17;;;;;;;31.00;24.70;;;7.10;99.90;;;;;;4971717;28;20185;-53
2023/02/12 01:34:43;;;;;;;29.87;24.47;;;;;;;;;;4972620;28;20210;-55
2023/02/12 01:37:09;;;;;;;35.03;25.77;;;;;;;;;;4970695;28;20193;-55
2023/02/12 01:39:35;;;;;;;30.83;24.17;;;;;;;;;;4972401;28;20190;-56
2023/02/12 01:42:01;;;;;;;29.70;24.83;;;;;;;;;;4970930;28;20212;-58
2023/02/12 01:44:31;;;;;;;32.40;24.90;;;;;;;;;;4971538;28;20649;-56
2023/02/12 01:46:59;;;;;;;31.97;24.00;;;7.00;99.90;;;;;;4971567;28;20189;-53
2023/02/12 01:49:42;;;;;;;30.97;24.37;;;7.10;99.90;;;;;;4969939;28;20190;-53
2023/02/12 01:52:14;;;;;;;38.20;27.47;;;7.10;99.90;;;;;;4966138;28;20193;-53
2023/02/12 01:54:41;;;;;;;34.50;28.43;;;6.90;99.90;;;;;;4965557;28;20288;-58
2023/02/12 01:57:10;;;;;;;31.37;25.00;;;6.90;99.90;;;;;;4965617;28;20184;-55
2023/02/12 01:59:37;;;;;;;33.70;25.83;;;6.80;99.90;;;;;;4969314;28;20269;-59
2023/02/12 02:02:04;;;;;;;33.83;26.97;;;7.00;99.90;;;;;;4969030;28;20256;-53
2023/02/12 02:04:35;;;;;;;33.57;26.60;;;6.70;99.90;;;;;;4969570;28;20696;-56
2023/02/12 02:07:04;;;;;;;31.80;25.70;;;6.80;99.90;;;;;;4970582;28;20256;-55
2023/02/12 02:09:32;;;;;;;32.73;25.43;;;6.80;99.90;;;;;;4971867;28;20177;-54
2023/02/12 02:14:43;;;;;;;31.37;25.93;;;6.80;99.90;;;;;;4971354;28;20713;-55
2023/02/12 02:17:13;;;;;;;32.77;26.63;;;;;;;;;;4971562;28;20182;-55
2023/02/12 02:19:54;;;;;;;31.60;25.67;;;7.00;99.90;;;;;;4972082;28;20264;-53
2023/02/12 02:22:53;;;;;;;31.97;25.43;;;6.90;99.90;;;;;;4972142;28;20220;-54
2023/02/12 02:25:38;;;;;;;33.13;27.27;;;;;;;;;;4972286;28;20296;-57
2023/02/12 02:28:51;;;;;;;35.13;26.57;;;6.90;99.90;;;;;;4971700;28;20182;-55
2023/02/12 02:31:26;;;;;;;29.93;25.40;;;;;;;;;;4884201;29;20223;-58
2023/02/12 02:34:02;;;;;;;33.17;26.73;;;6.70;99.90;;;;;;4881116;29;20648;-54
2023/02/12 02:36:33;;;;;;;34.03;27.73;;;;;;;;;;4895476;29;20211;-55
2023/02/12 02:39:21;;;;;;;33.13;25.80;;;;;;;;;;4896979;29;20251;-54
2023/02/12 02:41:58;;;;;;;31.00;25.47;;;7.00;99.90;;;;;;4894648;29;20227;-54
2023/02/12 02:44:38;;;;;;;33.40;26.27;;;6.80;99.90;;;;;;4896562;29;20227;-54
2023/02/12 02:47:08;;;;;;;32.73;27.27;;;6.70;99.90;;;;;;4896883;29;20180;-57
2023/02/12 02:49:58;;;;;;;33.00;27.17;;;6.80;99.90;;;;;;4897087;29;20184;-58
2023/02/12 02:52:31;;;;;;;34.87;28.67;;;6.90;99.90;;;;;;4897270;29;20192;-57
2023/02/12 02:55:04;;;;;;;32.40;27.10;;;6.70;99.90;;;;;;4896453;29;20823;-53
2023/02/12 02:57:45;;;;;;;37.83;28.87;;;6.80;99.90;;;;;;4896120;29;20316;-57
2023/02/12 03:00:14;;;;;;;35.07;27.90;;;6.60;99.90;;;;;;4895604;29;20564;-55
2023/02/12 03:02:46;;;;;;;37.30;29.07;;;6.40;99.90;;;;;;4896778;29;20583;-54
2023/02/12 03:05:30;;;;;;;37.33;29.73;;;6.30;99.90;;;;;;4896613;29;20200;-56
2023/02/12 03:08:09;;;;;;;38.10;28.90;;;6.30;99.90;;;;;;4943574;28;20186;-53
2023/02/12 03:10:41;;;;;;;38.53;30.43;;;6.00;99.90;;;;;;4974569;28;20596;-55
2023/02/12 03:13:11;;;;;;;36.40;29.30;;;6.20;99.90;;;;;;4975088;28;20181;-56
2023/02/12 03:15:43;;;;;;;38.17;30.50;;;6.40;99.90;;;;;;4973972;28;20209;-53
2023/02/12 03:18:35;;;;;;;39.77;30.73;;;;;;;;;;4964092;28;20526;-54
2023/02/12 03:21:08;;;;;;;35.57;29.13;;;6.40;99.90;;;;;;4972403;28;20672;-56
2023/02/12 03:23:39;;;;;;;38.37;29.87;;;;;;;;;;4975360;28;20265;-56
2023/02/12 03:26:07;;;;;;;38.57;29.90;;;6.30;99.90;;;;;;4971179;28;20217;-56
2023/02/12 03:28:35;;;;;;;36.93;30.20;;;6.30;99.90;;;;;;4973833;28;20867;-53
2023/02/12 03:31:14;;;;;;;37.00;29.37;;;6.30;99.90;;;;;;4974157;28;20185;-52
2023/02/12 03:33:46;;;;;;;35.03;29.07;;;;;;;;;;4974430;28;20636;-57
2023/02/12 03:36:20;;;;;;;34.50;27.80;;;;;;;;;;4974509;28;20270;-57
2023/02/12 03:38:51;;;;;;;38.97;30.13;;;;;;;;;;4974996;28;20184;-56
2023/02/12 03:41:17;;;;;;;37.00;29.27;;;;;;;;;;4974418;28;20197;-58
2023/02/12 03:43:52;;;;;;;38.30;30.17;;;;;;;;;;4971515;28;20685;-56
2023/02/12 03:46:28;;;;;;;34.17;28.77;;;6.60;99.90;;;;;;4973157;28;20193;-54
2023/02/12 03:49:00;;;;;;;38.40;30.27;;;;;;;;;;4971390;28;20184;-56
2023/02/12 03:51:29;;;;;;;40.63;29.97;;;;;;;;;;4973656;28;20657;-56
2023/02/12 03:53:56;;;;;;;37.20;29.07;;;6.60;99.90;;;;;;4974470;28;20209;-56
2023/02/12 03:56:27;;;;;;;37.23;29.50;;;6.60;99.90;;;;;;4974591;28;20727;-55
2023/02/12 03:58:53;;;;;;;40.77;30.43;;;6.90;99.90;;;;;;4973166;28;20886;-56
2023/02/12 04:01:19;;;;;;;37.27;29.37;;;;;;;;;;4968951;28;20206;-57
2023/02/12 04:03:45;;;;;;;40.30;29.67;;;;;;;;;;4972915;28;20257;-56
2023/02/12 04:06:19;;;;;;;36.70;29.20;;;;;;;;;;4972679;28;20205;-53
2023/02/12 04:08:45;;;;;;;34.53;28.63;;;6.90;99.90;;;;;;4973623;28;20204;-53
2023/02/12 04:11:18;;;;;;;38.00;29.10;;;;;;;;;;4972533;28;20649;-56
2023/02/12 04:13:44;;;;;;;39.77;29.80;;;;;;;;;;4972912;28;20260;-55
2023/02/12 04:16:25;;;;;;;35.30;27.83;;;;;;;;;;4972413;28;20202;-54
2023/02/12 04:18:52;;;;;;;37.37;29.83;;;6.70;99.90;;;;;;4972082;28;20188;-57
2023/02/12 04:21:18;;;;;;;37.03;30.57;;;;;;;;;;4972169;28;20260;-56
2023/02/12 04:23:49;;;;;;;37.93;29.90;;;6.60;99.90;;;;;;4972433;28;20186;-57
2023/02/12 04:26:31;;;;;;;37.57;29.10;;;6.80;99.90;;;;;;4973212;28;20212;-58
2023/02/12 04:29:15;;;;;;;38.87;30.30;;;;;;;;;;4973014;28;20253;-54
2023/02/12 04:31:47;;;;;;;35.67;29.60;;;;;;;;;;4973945;28;20184;-54
2023/02/12 04:34:30;;;;;;;40.50;31.63;;;6.70;99.90;;;;;;4972960;28;20547;-54
2023/02/12 04:37:04;;;;;;;40.40;29.33;;;6.70;99.90;;;;;;4973628;28;20179;-54
2023/02/12 04:39:34;;;;;;;40.63;32.37;;;6.60;99.90;;;;;;4974106;28;20258;-53
2023/02/12 04:42:01;;;;;;;38.97;30.13;;;6.60;99.90;;;;;;4973779;28;20209;-55
2023/02/12 04:44:31;;;;;;;45.03;35.57;;;6.60;99.90;;;;;;4973997;28;20249;-53
2023/02/12 04:46:57;;;;;;;42.23;32.50;;;;;;;;;;4972868;28;20178;-53
2023/02/12 04:49:23;;;;;;;37.97;29.20;;;;;;;;;;4969543;28;20174;-57
2023/02/12 04:51:49;;;;;;;36.63;28.70;;;6.50;99.90;;;;;;4972094;28;20200;-53
2023/02/12 04:54:16;;;;;;;39.37;29.73;;;6.70;99.90;;;;;;4971322;28;20189;-56
2023/02/12 04:56:42;;;;;;;37.97;29.17;;;;;;;;;;4971751;28;20209;-56
2023/02/12 04:59:08;;;;;;;40.47;31.10;;;;;;;;;;4971797;28;20173;-58
2023/02/12 05:01:36;;;;;;;36.83;28.17;;;6.30;99.90;;;;;;4972797;28;20269;-56
2023/02/12 05:04:02;;;;;;;37.23;28.80;;;6.20;99.90;;;;;;4973501;28;20181;-54
2023/02/12 05:06:31;;;;;;;38.77;30.93;;;;;;;;;;4972342;28;20204;-55
2023/02/12 05:08:57;;;;;;;38.90;29.80;;;6.30;99.90;;;;;;4968794;28;20253;-53
2023/02/12 05:11:23;;;;;;;35.90;28.80;;;6.50;99.90;;;;;;4973317;28;20186;-54
2023/02/12 05:13:49;;;;;;;43.13;31.53;;;6.40;99.90;;;;;;4972831;28;20671;-56
2023/02/12 05:16:15;;;;;;;34.70;28.73;;;6.40;99.90;;;;;;4971070;28;20205;-56
2023/02/12 05:18:42;;;;;;;37.43;29.23;;;;;;;;;;4971413;28;20643;-55
2023/02/12 05:21:07;;;;;;;39.87;30.23;;;;;;;;;;4971938;28;20197;-56
2023/02/12 05:23:35;;;;;;;41.13;32.97;;;6.50;99.90;;;;;;4969994;28;20184;-55
2023/02/12 05:26:03;;;;;;;36.07;28.53;;;6.40;99.90;;;;;;4972720;28;20576;-53
2023/02/12 05:28:30;;;;;;;39.00;31.30;;;;;;;;;;4972334;28;20192;-56
2023/02/12 05:30:59;;;;;;;36.50;29.43;;;6.20;99.90;;;;;;4972973;28;20186;-57
2023/02/12 05:33:24;;;;;;;36.97;28.27;;;6.20;99.90;;;;;;4972853;28;20269;-53
2023/02/12 05:35:50;;;;;;;36.50;28.83;;;6.20;99.90;;;;;;4972331;28;20351;-51
2023/02/12 05:38:16;;;;;;;36.73;28.80;;;;;;;;;;4972614;28;20182;-57
2023/02/12 05:40:42;;;;;;;38.77;30.03;;;;;;;;;;4972854;28;20751;-53
2023/02/12 05:43:08;;;;;;;36.27;28.10;;;;;;;;;;4972630;28;20166;-57
2023/02/12 05:45:34;;;;;;;37.57;29.43;;;6.40;99.90;;;;;;4972519;28;20200;-55
2023/02/12 05:47:59;;;;;;;34.27;27.83;;;6.70;99.90;;;;;;4972134;28;20197;-53
2023/02/12 05:50:25;;;;;;;34.40;28.60;;;6.60;99.90;;;;;;4973442;28;20172;-55
2023/02/12 05:52:51;;;;;;;35.00;27.33;;;;;;;;;;4972276;28;20224;-57
2023/02/12 05:55:17;;;;;;;36.53;27.93;;;;;;;;;;4972416;28;20566;-54
2023/02/12 05:57:42;;;;;;;35.60;28.20;;;;;;;;;;4966800;28;20529;-54
2023/02/12 06:00:10;;;;;;;36.97;27.87;;;6.80;99.90;;;;;;4966340;28;20177;-53
2023/02/12 06:02:35;;;;;;;37.63;28.63;;;7.20;99.90;;;;;;4970719;28;20636;-54
2023/02/12 06:05:01;;;;;;;43.50;32.13;;;6.70;99.90;;;;;;4972627;28;20181;-55
2023/02/12 06:07:27;;;;;;;39.60;28.13;;;6.70;99.90;;;;;;4970712;28;20181;-56
2023/02/12 06:09:53;;;;;;;38.17;28.67;;;;;;;;;;4971072;28;20290;-56
2023/02/12 06:12:19;;;;;;;38.90;29.13;;;;;;;;;;4969010;28;20185;-56
2023/02/12 06:14:45;;;;;;;52.80;34.43;;;6.30;99.90;;;;;;4971963;28;20205;-53
2023/02/12 06:17:11;;;;;;;41.23;30.47;;;;;;;;;;4970502;28;20268;-56
2023/02/12 06:19:37;;;;;;;52.77;34.57;;;6.40;99.90;;;;;;4971594;28;20255;-54
2023/02/12 06:22:03;;;;;;;44.20;32.83;;;;;;;;;;4971785;28;20237;-53
2023/02/12 06:24:28;;;;;;;43.50;32.87;;;;;;;;;;4971868;28;20751;-55
2023/02/12 06:26:54;;;;;;;53.67;34.37;;;;;;;;;;4971587;28;20632;-56
2023/02/12 06:29:21;;;;;;;58.97;36.83;;;6.20;99.90;;;;;;4971798;28;20668;-56
2023/02/12 06:31:47;;;;;;;59.73;36.13;;;;;;;;;;4971375;28;20593;-55
2023/02/12 06:34:16;;;;;;;67.10;38.90;;;6.00;99.90;;;;;;4955248;28;20186;-56
2023/02/12 06:36:44;;;;;;;66.73;37.70;;;6.30;99.90;;;;;;4970893;28;20518;-54
2023/02/12 06:39:12;;;;;;;58.87;34.67;;;6.10;99.90;;;;;;4963927;28;20182;-53
2023/02/12 06:41:38;;;;;;;63.43;35.03;;;;;;;;;;4972169;28;20219;-54
2023/02/12 06:44:05;;;;;;;60.67;36.53;;;6.20;99.90;;;;;;4972077;28;20174;-56
2023/02/12 06:46:31;;;;;;;68.10;37.33;;;;;;;;;;4970951;28;20297;-56
2023/02/12 06:48:59;;;;;;;66.37;35.20;;;6.00;99.90;;;;;;4971650;28;20552;-54
2023/02/12 06:51:25;;;;;;;56.63;33.40;;;6.10;99.90;;;;;;4970306;28;20224;-56
2023/02/12 06:53:52;;;;;;;51.43;32.57;;;6.30;99.90;;;;;;4971512;28;20268;-53
2023/02/12 06:56:20;;;;;;;53.97;33.57;;;6.30;99.90;;;;;;4969261;28;20202;-55
2023/02/12 06:58:50;;;;;;;56.10;33.03;;;6.50;99.90;;;;;;4969354;28;20272;-57
2023/02/12 07:01:18;;;;;;;53.87;32.57;;;6.40;99.90;;;;;;4970277;28;20193;-57
2023/02/12 07:03:49;;;;;;;58.03;31.67;;;6.60;99.90;;;;;;4965436;28;20723;-56
2023/02/12 07:06:14;;;;;;;52.50;32.87;;;6.30;99.90;;;;;;4952451;28;20598;-55
2023/02/12 07:08:40;;;;;;;56.60;33.50;;;;;;;;;;4965579;28;20178;-54
2023/02/12 07:11:06;;;;;;;85.23;41.70;;;6.50;99.90;;;;;;4971955;28;20186;-54
2023/02/12 07:13:33;;;;;;;64.20;38.63;;;;;;;;;;4973641;28;20212;-56
2023/02/12 07:16:03;;;;;;;54.73;36.00;;;;;;;;;;4974020;28;20620;-54
2023/02/12 07:18:29;;;;;;;61.53;34.60;;;;;;;;;;4975212;28;20185;-57
2023/02/12 07:20:55;;;;;;;61.77;36.50;;;6.30;99.90;;;;;;4973641;28;20201;-59
2023/02/12 07:23:21;;;;;;;59.90;37.27;;;;;;;;;;4971712;28;20178;-56
2023/02/12 07:25:58;;;;;;;63.50;40.57;;;6.40;99.90;;;;;;4972823;28;20728;-58
2023/02/12 07:28:24;;;;;;;70.50;40.00;;;7.00;99.90;;;;;;4974990;28;20186;-53
2023/02/12 07:30:50;;;;;;;69.97;38.37;;;;;;;;;;4975301;28;20181;-56
2023/02/12 07:33:16;;;;;;;62.10;38.57;;;6.30;99.90;;;;;;4972279;28;20550;-56
2023/02/12 07:35:42;;;;;;;61.20;38.33;;;6.60;99.90;;;;;;4969545;28;20516;-53
2023/02/12 07:38:08;;;;;;;59.33;36.27;;;6.40;99.90;;;;;;4969919;28;20257;-56
2023/02/12 07:40:34;;;;;;;68.63;40.37;;;;;;;;;;4971957;28;20215;-55
2023/02/12 07:43:00;;;;;;;73.07;43.37;;;;;;;;;;4974550;28;20513;-56
2023/02/12 07:45:26;;;;;;;63.70;40.90;;;;;;;;;;4973410;28;20200;-53
2023/02/12 07:47:52;;;;;;;64.90;38.80;;;;;;;;;;4974189;28;20205;-53
2023/02/12 07:50:17;;;;;;;61.27;38.23;;;6.50;99.90;;;;;;4974341;28;20173;-53
2023/02/12 07:52:43;;;;;;;71.03;40.10;;;6.70;99.90;;;;;;4972305;28;20253;-55
2023/02/12 07:55:08;;;;;;;72.40;45.40;;;6.60;99.90;;;;;;4973823;28;20236;-55
2023/02/12 07:57:35;;;;;;;64.40;38.67;;;6.70;99.90;;;;;;4974104;28;20268;-56
2023/02/12 08:00:01;;;;;;;60.67;39.83;;;;;;;;;;4973417;28;20190;-56
2023/02/12 08:02:27;;;;;;;138.60;46.80;;;;;;;;;;4973737;28;20204;-56
2023/02/12 08:04:56;;;;;;;62.40;41.13;;;6.70;99.90;;;;;;4958875;28;20208;-57
2023/02/12 08:07:22;;;;;;;61.27;39.33;;;6.40;99.90;;;;;;4974143;28;20533;-54
2023/02/12 08:09:48;;;;;;;91.93;44.30;;;6.50;99.90;;;;;;4972432;28;20170;-54
2023/02/12 08:12:14;;;;;;;68.53;42.13;;;;;;;;;;4970763;28;20268;-56
2023/02/12 08:14:40;;;;;;;61.33;39.90;;;;;;;;;;4971368;28;20287;-56
2023/02/12 08:17:07;;;;;;;108.27;46.40;;;;;;;;;;4972571;28;20209;-56
2023/02/12 08:19:33;;;;;;;61.53;39.93;;;6.10;99.90;;;;;;4973728;28;20660;-56
2023/02/12 08:22:01;;;;;;;68.07;40.43;;;6.50;99.90;;;;;;4973467;28;20533;-54
2023/02/12 08:24:27;;;;;;;63.47;39.37;;;;;;;;;;4972706;28;20264;-54
2023/02/12 08:26:53;;;;;;;63.63;39.00;;;;;;;;;;4972944;28;20193;-55
2023/02/12 08:29:20;;;;;;;55.90;37.30;;;;;;;;;;4973427;28;20178;-56
2023/02/12 08:31:47;;;;;;;95.03;41.90;;;;;;;;;;4972390;28;20173;-54
2023/02/12 08:34:21;;;;;;;62.23;38.97;;;7.00;99.90;;;;;;4973577;28;20259;-52
2023/02/12 08:36:49;;;;;;;113.03;44.57;;;6.70;99.90;;;;;;4971792;28;20178;-55
2023/02/12 08:39:15;;;;;;;57.10;38.27;;;;;;;;;;4972977;28;20667;-57
2023/02/12 08:41:41;;;;;;;57.23;36.97;;;;;;;;;;4973444;28;20538;-57
2023/02/12 08:44:08;;;;;;;54.57;36.10;;;6.50;99.90;;;;;;4973552;28;20348;-54
2023/02/12 08:46:36;;;;;;;60.50;38.67;;;6.60;99.90;;;;;;4973000;28;20200;-55
2023/02/12 08:49:04;;;;;;;57.93;36.83;;;6.80;99.90;;;;;;4971177;28;20178;-56
2023/02/12 08:51:32;;;;;;;55.80;36.80;;;6.70;99.90;;;;;;4968411;28;20182;-56
2023/02/12 08:54:00;;;;;;;55.90;37.07;;;6.90;99.90;;;;;;4967701;28;20174;-56
2023/02/12 08:56:28;;;;;;;55.47;36.90;;;;;;;;;;4971918;28;20193;-56
2023/02/12 08:58:55;;;;;;;55.30;37.13;;;6.80;99.90;;;;;;4970410;28;20186;-57
2023/02/12 09:01:23;;;;;;;54.50;36.17;;;7.00;99.90;;;;;;4969710;28;20232;-56
2023/02/12 09:03:49;;;;;;;69.80;39.30;;;6.90;99.90;;;;;;4972506;28;20189;-54
2023/02/12 09:06:17;;;;;;;174.33;45.83;;;6.70;99.90;;;;;;4972730;28;20201;-55
2023/02/12 09:08:43;;;;;;;56.37;36.67;;;;;;;;;;4968275;28;20193;-59
2023/02/12 09:11:17;;;;;;;61.30;38.07;;;6.90;99.90;;;;;;4969388;28;20543;-52
2023/02/12 09:13:44;;;;;;;56.27;36.13;;;7.20;99.90;;;;;;4969284;28;20232;-55
2023/02/12 09:16:11;;;;;;;53.47;34.67;;;7.20;99.90;;;;;;4967549;28;20262;-57
2023/02/12 09:18:37;;;;;;;50.93;33.77;;;6.70;99.90;;;;;;4971263;28;20263;-55
2023/02/12 09:21:12;;;;;;;142.40;40.87;;;7.00;99.90;;;;;;4971460;28;20263;-53
2023/02/12 09:23:38;;;;;;;81.47;36.53;;;;;;;;;;4973082;28;20248;-52
2023/02/12 09:26:07;;;;;;;77.97;37.27;;;7.00;99.90;;;;;;4972172;28;20916;-52
2023/02/12 09:28:33;;;;;;;51.00;33.77;;;;;;;;;;4971895;28;20832;-55
2023/02/12 09:30:59;;;;;;;57.33;35.90;;;;;;;;;;4971856;28;20618;-54
2023/02/12 09:33:25;;;;;;;59.07;36.87;;;;;;;;;;4967823;28;20178;-55
2023/02/12 09:35:51;;;;;;;72.57;40.97;;;;;;;;;;4969593;28;20294;-55
2023/02/12 09:38:17;;;;;;;68.77;38.63;;;;;;;;;;4969864;28;20188;-56
2023/02/12 09:41:21;;;;;;;76.43;43.67;;;7.40;99.90;;;;;;4970936;28;21089;-53
2023/02/12 09:43:51;;;;;;;73.90;41.37;;;7.70;99.90;;;;;;4926692;28;20228;-56
2023/02/12 09:46:52;;;;;;;85.60;42.23;;;7.50;99.90;;;;;;4964845;28;20297;-53
2023/02/12 09:49:45;;;;;;;77.50;40.53;;;7.60;99.90;;;;;;4955650;28;20669;-55
2023/02/12 09:52:25;;;;;;;85.17;42.93;;;7.70;99.90;;;;;;4972488;28;20182;-56
2023/02/12 09:54:52;;;;;;;78.03;42.57;;;7.70;99.90;;;;;;4970693;28;20193;-53
2023/02/12 09:57:38;;;;;;;76.33;41.60;;;7.80;99.90;;;;;;4971979;28;20186;-53
2023/02/12 10:00:05;;;;;;;69.27;37.93;;;;;;;;;;4971786;28;20657;-56
2023/02/12 10:02:33;;;;;;;77.73;41.17;;;8.40;99.90;;;;;;4972578;28;20232;-53
2023/02/12 10:04:59;;;;;;;69.33;39.57;;;;;;;;;;4971846;28;20198;-53
2023/02/12 10:07:38;;;;;;;73.87;39.73;;;;;;;;;;4972236;28;20181;-56
2023/02/12 10:10:09;;;;;;;64.97;38.67;;;8.30;99.90;;;;;;4972226;28;20182;-56
2023/02/12 10:13:13;;;;;;;62.37;37.87;;;8.10;99.90;;;;;;4972085;28;20623;-55
2023/02/12 10:15:51;;;;;;;63.77;38.97;;;7.90;99.90;;;;;;4971488;28;20651;-56
2023/02/12 10:18:19;;;;;;;63.53;37.20;;;8.00;99.90;;;;;;4960167;28;20182;-53
2023/02/12 10:20:45;;;;;;;70.20;39.77;;;;;;;;;;4969929;28;20344;-56
2023/02/12 10:23:25;;;;;;;75.67;41.07;;;;;;;;;;4971779;28;20692;-53
2023/02/12 10:25:58;;;;;;;74.37;41.87;;;8.60;99.90;;;;;;4971989;28;20296;-51
2023/02/12 10:28:23;;;;;;;85.80;39.60;;;;;;;;;;4971812;28;20701;-55
2023/02/12 10:30:56;;;;;;;61.57;34.50;;;;;;;;;;4972285;28;20209;-55
2023/02/12 10:33:26;;;;;;;65.93;37.57;;;8.40;99.90;;;;;;4969870;28;20189;-58
2023/02/12 10:36:16;;;;;;;71.95;42.53;;;8.20;99.90;;;;;;4969561;28;20538;-55
2023/02/12 10:38:46;;;;;;;72.13;39.07;;;;;;;;;;4971189;28;20589;-54
2023/02/12 10:41:14;;;;;;;82.50;40.37;;;8.10;99.90;;;;;;4971159;28;20237;-53
2023/02/12 10:43:40;;;;;;;82.70;39.20;;;;;;;;;;4971718;28;20212;-54
2023/02/12 10:46:06;;;;;;;68.67;38.73;;;;;;;;;;4970746;28;20204;-56
2023/02/12 10:48:37;;;;;;;71.20;37.97;;;8.20;99.90;;;;;;4974361;28;20174;-51
2023/02/12 10:51:11;;;;;;;68.10;38.63;;;;;;;;;;4975161;28;20197;-53
2023/02/12 10:53:41;;;;;;;74.57;40.63;;;7.80;99.90;;;;;;4975811;28;20182;-54
2023/02/12 10:56:21;;;;;;;68.77;38.13;;;8.00;99.90;;;;;;4975108;28;20213;-54
2023/02/12 10:58:55;;;;;;;73.47;39.60;;;;;;;;;;4975335;28;20185;-53
2023/02/12 11:01:21;;;;;;;77.93;42.60;;;;;;;;;;4975357;28;20209;-55
2023/02/12 11:03:47;;;;;;;93.47;44.60;;;;;;;;;;4975195;28;20750;-57
2023/02/12 11:06:18;;;;;;;77.23;40.93;;;;;;;;;;4975211;28;20225;-54
2023/02/12 11:08:44;;;;;;;94.13;43.80;;;8.50;99.90;;;;;;4975423;28;20216;-53
2023/02/12 11:11:14;;;;;;;65.00;37.00;;;8.50;99.90;;;;;;4975533;28;20189;-54
2023/02/12 11:13:45;;;;;;;85.67;42.53;;;8.60;99.90;;;;;;4975564;28;20563;-55
2023/02/12 11:16:11;;;;;;;70.23;38.00;;;8.40;99.90;;;;;;4975212;28;20284;-53
2023/02/12 11:18:37;;;;;;;70.87;37.83;;;8.40;99.90;;;;;;4975701;28;20182;-54
2023/02/12 11:21:11;;;;;;;64.47;36.20;;;8.40;99.90;;;;;;4975330;28;20679;-56
2023/02/12 11:23:38;;;;;;;70.30;40.47;;;;;;;;;;4975451;28;20170;-54
2023/02/12 11:26:18;;;;;;;84.60;41.53;;;8.30;99.90;;;;;;4976591;28;20233;-56
2023/02/12 11:29:22;;;;;;;74.80;39.90;;;8.30;99.90;;;;;;4975088;28;20612;-57
2023/02/12 11:32:03;;;;;;;97.63;40.73;;;8.30;99.90;;;;;;4975278;28;20174;-55
2023/02/12 11:34:29;;;;;;;67.90;35.57;;;8.30;99.90;;;;;;4975180;28;20549;-52
2023/02/12 11:36:56;;;;;;;64.37;37.20;;;8.30;99.90;;;;;;4974877;28;20177;-55
2023/02/12 11:39:23;;;;;;;80.80;39.33;;;8.30;99.90;;;;;;4975097;28;20169;-54
2023/02/12 11:41:53;;;;;;;86.53;41.23;;;8.20;99.90;;;;;;4974305;28;20307;-55
2023/02/12 11:44:23;;;;;;;97.70;42.27;;;8.20;99.90;;;;;;4974835;28;20177;-55
2023/02/12 11:47:07;;;;;;;75.83;39.83;;;8.40;99.90;;;;;;4974729;28;20257;-54
2023/02/12 11:49:39;;;;;;;81.10;40.27;;;8.50;99.90;;;;;;4975498;28;20529;-58
2023/02/12 11:52:06;;;;;;;71.23;37.73;;;8.70;99.90;;;;;;4974937;28;20193;-53
2023/02/12 11:54:52;;;;;;;53.27;31.70;;;;;;;;;;4974875;28;20202;-56
2023/02/12 11:57:41;;;;;;;54.23;32.93;;;8.70;99.90;;;;;;4972071;28;20174;-58
2023/02/12 12:00:28;;;;;;;46.63;29.17;;;;;;;;;;4965512;28;20731;-53
2023/02/12 12:02:54;;;;;;;51.43;30.50;;;;;;;;;;4973915;28;20197;-57
2023/02/12 12:05:24;;;;;;;41.87;26.17;;;9.20;99.90;;;;;;4974056;28;20684;-59
2023/02/12 12:07:57;;;;;;;39.77;25.43;;;9.20;99.90;;;;;;4974281;28;20549;-56
2023/02/12 12:10:31;;;;;;;44.30;28.30;;;;;;;;;;4974620;28;20258;-58
2023/02/12 12:13:03;;;;;;;42.20;26.97;;;9.70;99.90;;;;;;4974278;28;20173;-54
2023/02/12 12:21:32;;;;;;;45.80;29.10;;;10.10;99.90;;;;;;4974420;28;20355;-57
2023/02/12 12:24:10;;;;;;;43.73;27.13;;;;;;;;;;4974465;28;20186;-56
2023/02/12 12:26:39;;;;;;;43.50;27.43;;;10.20;99.90;;;;;;4973866;28;20213;-53
2023/02/12 12:29:10;;;;;;;40.97;26.67;;;9.90;99.90;;;;;;4974151;28;20186;-60
2023/02/12 12:31:48;;;;;;;42.23;28.23;;;9.90;99.90;;;;;;4973622;28;20182;-56
2023/02/12 12:34:17;;;;;;;40.07;26.20;;;10.00;99.90;;;;;;4974136;28;20221;-56
2023/02/12 12:37:03;;;;;;;43.43;28.77;;;10.00;99.90;;;;;;4973915;28;20293;-56
2023/02/12 12:39:40;;;;;;;42.17;26.73;;;10.50;99.90;;;;;;4974065;28;20285;-56
2023/02/12 12:42:24;;;;;;;33.73;23.83;;;10.70;99.90;;;;;;4973975;28;20205;-58
2023/02/12 12:45:16;;;;;;;36.60;24.90;;;10.80;99.90;;;;;;4973820;28;20245;-58
2023/02/12 12:48:00;;;;;;;36.53;24.53;;;11.20;99.90;;;;;;4973578;28;20587;-59
2023/02/12 12:50:34;;;;;;;41.80;27.47;;;11.50;99.90;;;;;;4973783;28;20174;-55
2023/02/12 12:53:27;;;;;;;37.60;25.83;;;11.90;99.90;;;;;;4973815;28;20169;-55
2023/02/12 12:55:52;;;;;;;37.53;26.13;;;;;;;;;;4973259;28;20204;-58
2023/02/12 12:58:33;;;;;;;31.70;22.57;;;12.60;99.90;;;;;;4973560;28;20256;-56
2023/02/12 13:01:11;;;;;;;29.80;21.73;;;;;;;;;;4973708;28;20316;-58
2023/02/12 13:03:46;;;;;;;30.20;22.10;;;;;;;;;;4973589;28;20252;-53
2023/02/12 13:06:12;;;;;;;26.87;19.63;;;;;;;;;;4972325;28;20538;-54
2023/02/12 13:08:59;;;;;;;27.53;21.07;;;15.30;98.80;;;;;;4973263;28;20328;-57
2023/02/12 13:11:56;;;;;;;28.63;21.47;;;15.60;99.90;;;;;;4971796;28;20185;-57
2023/02/12 13:14:41;;;;;;;24.50;19.67;;;15.30;99.90;;;;;;4973274;28;20313;-57
2023/02/12 13:17:32;;;;;;;29.30;22.27;;;16.00;97.30;;;;;;4972973;28;20653;-55
2023/02/12 13:20:18;;;;;;;27.70;21.03;;;15.80;96.80;;;;;;4972944;28;20257;-56
2023/02/12 13:23:00;;;;;;;27.83;20.77;;;15.50;97.20;;;;;;4971415;28;20209;-58
2023/02/12 13:25:41;;;;;;;26.53;19.20;;;15.50;99.90;;;;;;4971914;28;20217;-53
2023/02/12 13:28:14;;;;;;;27.07;20.57;;;14.70;98.10;;;;;;4972901;28;20169;-54
2023/02/12 13:30:48;;;;;;;31.37;22.70;;;14.40;98.50;;;;;;4972273;28;20556;-61
2023/02/12 13:33:26;;;;;;;27.97;19.97;;;14.20;99.90;;;;;;4973329;28;20515;-57
2023/02/12 13:36:00;;;;;;;26.93;20.37;;;14.00;99.00;;;;;;4972830;28;20200;-56
2023/02/12 13:38:31;;;;;;;28.03;19.33;;;13.60;99.90;;;;;;4972146;28;20218;-54
2023/02/12 13:41:07;;;;;;;27.53;19.60;;;13.30;99.90;;;;;;4972756;28;20597;-55